Time;durP1;ratioP1;P1;durP2;ratioP2;P2;SDS_P1;SDS_P2;PMS_P1;PMS_P2;Temp;Humidity;BMP_temperature;BMP_pressure;BME280_temperature;BME280_humidity;BME280_pressure;Samples;Min_cycle;Max_cycle;Signal;HPM_P1;HPM_P2
2022/01/28 00:01:45;;;;;;;2.07;1.17;;;18.80;38.20;;;;;;5040212;28;20410;-63
2022/01/28 00:04:16;;;;;;;1.93;1.83;;;18.80;38.20;;;;;;5070997;28;20435;-63
2022/01/28 00:06:42;;;;;;;1.30;1.20;;;18.80;38.20;;;;;;5041421;28;20535;-63
2022/01/28 00:09:07;;;;;;;1.17;1.07;;;18.80;38.20;;;;;;5043755;28;20914;-63
2022/01/28 00:11:33;;;;;;;2.70;1.70;;;18.80;38.20;;;;;;5040356;28;20666;-63
2022/01/28 00:14:15;;;;;;;1.33;1.10;;;18.70;38.10;;;;;;5040328;28;20211;-62
2022/01/28 00:38:32;;;;;;;2.23;1.10;;;18.80;38.20;;;;;;5040014;28;20480;-63
2022/01/28 00:40:58;;;;;;;1.50;0.97;;;18.80;38.20;;;;;;5039399;28;20468;-63
2022/01/28 00:43:24;;;;;;;1.90;1.20;;;18.80;38.10;;;;;;5040495;28;20419;-62
2022/01/28 00:45:50;;;;;;;1.30;1.17;;;18.80;38.10;;;;;;5037938;28;20434;-62
2022/01/28 00:48:15;;;;;;;1.77;1.10;;;18.70;38.00;;;;;;5047469;28;20218;-63
2022/01/28 00:50:44;;;;;;;1.60;1.03;;;18.70;37.90;;;;;;5041819;28;20260;-62
2022/01/28 00:53:11;;;;;;;1.33;1.13;;;18.80;38.00;;;;;;5042668;28;20233;-62
2022/01/28 00:55:36;;;;;;;1.63;1.20;;;18.70;37.80;;;;;;5039787;28;20471;-62
2022/01/28 00:58:03;;;;;;;1.87;1.20;;;18.70;37.80;;;;;;5039048;28;20930;-62
2022/01/28 01:00:29;;;;;;;1.37;1.10;;;18.80;38.50;;;;;;5041098;28;20224;-62
2022/01/28 01:02:55;;;;;;;1.30;1.00;;;18.70;37.60;;;;;;5041459;28;20502;-62
2022/01/28 01:05:22;;;;;;;1.33;1.13;;;18.70;37.60;;;;;;5041469;28;20261;-63
2022/01/28 01:07:48;;;;;;;1.67;1.30;;;18.70;37.50;;;;;;5038832;28;20470;-62
2022/01/28 01:10:14;;;;;;;2.00;1.07;;;18.70;37.50;;;;;;5039014;28;20498;-62
2022/01/28 01:12:45;;;;;;;1.33;1.00;;;18.70;37.40;;;;;;5039887;28;20222;-62
2022/01/28 01:15:17;;;;;;;1.30;1.20;;;18.70;37.40;;;;;;5040017;28;20779;-63
2022/01/28 01:17:57;;;;;;;1.10;1.00;;;18.70;37.30;;;;;;5040859;28;20737;-63
2022/01/28 01:23:06;;;;;;;2.07;1.47;;;18.70;37.30;;;;;;5041123;28;20411;-63
2022/01/28 01:25:41;;;;;;;1.27;1.07;;;18.70;37.20;;;;;;5044770;28;20418;-63
2022/01/28 01:28:07;;;;;;;1.30;1.10;;;18.70;37.20;;;;;;5040245;28;20451;-63
2022/01/28 01:30:38;;;;;;;1.10;1.00;;;18.70;37.10;;;;;;5043533;28;20583;-63
2022/01/28 01:33:04;;;;;;;3.53;1.10;;;18.70;37.10;;;;;;5039489;28;20259;-63
2022/01/28 01:35:30;;;;;;;2.80;1.00;;;18.70;37.80;;;;;;5038935;28;20442;-63
2022/01/28 01:37:55;;;;;;;1.33;1.03;;;18.70;37.00;;;;;;5040006;28;20293;-63
2022/01/28 01:40:28;;;;;;;1.17;1.03;;;18.70;36.90;;;;;;5039439;28;20226;-63
2022/01/28 01:43:06;;;;;;;1.40;1.10;;;18.80;37.00;;;;;;5038379;28;20414;-63
2022/01/28 01:53:28;;;;;;;1.13;0.87;;;18.70;36.80;;;;;;5023044;28;20448;-63
2022/01/28 01:55:56;;;;;;;1.57;1.00;;;18.80;36.80;;;;;;5022990;28;21070;-62
2022/01/28 01:58:29;;;;;;;2.83;1.10;;;18.70;36.80;;;;;;5021403;28;20970;-63
2022/01/28 02:00:55;;;;;;;1.53;0.93;;;18.80;37.00;;;;;;5033015;28;20502;-63
2022/01/28 02:03:20;;;;;;;1.30;1.20;;;18.70;36.90;;;;;;5046017;28;20573;-63
2022/01/28 02:05:46;;;;;;;1.33;0.90;;;18.70;37.70;;;;;;5040729;28;20226;-62
2022/01/28 02:08:12;;;;;;;2.90;1.17;;;18.70;36.80;;;;;;5044818;28;20218;-62
2022/01/28 02:10:37;;;;;;;5.13;1.20;;;18.70;36.80;;;;;;5043628;28;20663;-63
2022/01/28 02:13:03;;;;;;;1.90;1.03;;;18.70;36.70;;;;;;5046582;28;20250;-62
2022/01/28 02:15:28;;;;;;;1.20;1.00;;;18.70;36.70;;;;;;5045907;28;20227;-63
2022/01/28 02:17:54;;;;;;;1.07;0.90;;;18.70;36.70;;;;;;5042298;28;20245;-62
2022/01/28 02:20:31;;;;;;;1.57;1.17;;;18.70;36.90;;;;;;5042192;28;20650;-62
2022/01/28 02:22:57;;;;;;;1.80;1.13;;;18.70;36.90;;;;;;5043019;28;20215;-62
2022/01/28 02:25:24;;;;;;;1.20;0.90;;;18.70;36.90;;;;;;5038641;28;20467;-63
2022/01/28 02:27:50;;;;;;;5.00;1.30;;;18.70;36.80;;;;;;5045543;28;20321;-63
2022/01/28 02:30:15;;;;;;;2.37;1.00;;;18.70;36.80;;;;;;5045040;28;20514;-63
2022/01/28 02:32:43;;;;;;;1.30;1.20;;;18.70;36.70;;;;;;5054009;28;20287;-62
2022/01/28 02:35:09;;;;;;;2.47;1.10;;;18.70;36.70;;;;;;5040373;28;20744;-63
2022/01/28 02:37:35;;;;;;;1.63;0.97;;;18.70;36.60;;;;;;5040094;28;20453;-63
2022/01/28 02:40:01;;;;;;;1.47;1.37;;;18.70;36.50;;;;;;5044281;28;20761;-63
2022/01/28 02:42:43;;;;;;;2.20;1.43;;;18.70;36.50;;;;;;5046563;28;20214;-63
2022/01/28 02:45:09;;;;;;;1.00;0.90;;;18.80;36.60;;;;;;5036693;28;20268;-63
2022/01/28 02:47:38;;;;;;;1.37;1.13;;;18.70;36.60;;;;;;5044330;28;20439;-63
2022/01/28 02:50:07;;;;;;;3.53;1.20;;;18.70;36.50;;;;;;5043722;28;20261;-63
2022/01/28 02:52:37;;;;;;;2.20;1.10;;;18.70;36.40;;;;;;5041809;28;20464;-63
2022/01/28 02:55:08;;;;;;;1.70;1.00;;;18.80;36.40;;;;;;5043807;28;20419;-62
2022/01/28 02:57:37;;;;;;;2.57;1.20;;;18.70;36.30;;;;;;5042841;28;21196;-63
2022/01/28 03:00:04;;;;;;;1.40;1.10;;;18.70;36.20;;;;;;5041751;28;20444;-63
2022/01/28 03:02:30;;;;;;;1.70;1.20;;;18.70;36.20;;;;;;5042395;28;20441;-64
2022/01/28 03:07:50;;;;;;;2.13;1.00;;;18.70;36.10;;;;;;5033907;28;20310;-63
2022/01/28 03:13:15;;;;;;;1.83;1.03;;;18.70;35.90;;;;;;5046946;28;20213;-63
2022/01/28 03:15:45;;;;;;;1.30;1.03;;;18.70;35.90;;;;;;5040397;28;20460;-63
2022/01/28 03:18:19;;;;;;;1.13;0.70;;;18.70;35.90;;;;;;5035381;28;20447;-63
2022/01/28 03:20:58;;;;;;;2.77;1.00;;;18.70;35.90;;;;;;5039632;28;20494;-63
2022/01/28 03:23:24;;;;;;;1.87;1.00;;;18.70;35.80;;;;;;5048009;28;20835;-63
2022/01/28 03:25:50;;;;;;;1.30;1.00;;;18.70;35.80;;;;;;5046681;28;20482;-63
2022/01/28 03:28:19;;;;;;;1.97;1.20;;;18.70;35.80;;;;;;5044661;28;20237;-63
2022/01/28 03:30:45;;;;;;;1.47;1.20;;;18.70;35.80;;;;;;5037349;28;20243;-63
2022/01/28 03:33:10;;;;;;;1.27;1.10;;;18.70;35.80;;;;;;5041036;28;20501;-63
2022/01/28 03:35:36;;;;;;;1.90;1.23;;;18.70;35.70;;;;;;5037508;28;20260;-63
2022/01/28 03:38:06;;;;;;;1.10;1.00;;;18.70;35.70;;;;;;5037208;28;20219;-63
2022/01/28 03:40:36;;;;;;;2.27;1.10;;;18.70;35.60;;;;;;5042945;28;20919;-63
2022/01/28 03:43:03;;;;;;;1.97;1.30;;;18.70;35.60;;;;;;5047282;28;20517;-63
2022/01/28 03:45:29;;;;;;;1.93;1.33;;;18.70;35.60;;;;;;5044253;28;20445;-63
2022/01/28 03:47:54;;;;;;;1.20;0.97;;;18.70;35.50;;;;;;5039519;28;20489;-63
2022/01/28 03:50:20;;;;;;;1.47;1.07;;;18.70;35.50;;;;;;5035958;28;20679;-63
2022/01/28 03:52:46;;;;;;;2.30;1.40;;;18.70;35.50;;;;;;5039814;28;20702;-64
2022/01/28 03:55:11;;;;;;;1.80;1.00;;;18.70;35.50;;;;;;5040937;28;20272;-63
2022/01/28 03:57:37;;;;;;;1.53;1.23;;;18.70;35.40;;;;;;5042287;28;20222;-63
2022/01/28 04:00:07;;;;;;;1.63;1.00;;;18.70;35.30;;;;;;5040335;28;20253;-65
2022/01/28 04:02:36;;;;;;;3.30;1.00;;;18.70;35.30;;;;;;5043719;28;20258;-63
2022/01/28 04:12:56;;;;;;;1.20;0.80;;;18.60;36.30;;;;;;5041438;28;20613;-63
2022/01/28 04:15:35;;;;;;;1.50;0.90;;;18.60;36.70;;;;;;5043316;28;20946;-63
2022/01/28 04:18:01;;;;;;;0.90;0.80;;;18.60;36.90;;;;;;5037254;28;20220;-63
2022/01/28 04:20:27;;;;;;;1.13;0.83;;;18.60;37.20;;;;;;5039739;28;20492;-64
2022/01/28 04:22:53;;;;;;;1.30;0.93;;;18.60;37.30;;;;;;5045811;28;20229;-63
2022/01/28 04:25:18;;;;;;;1.10;1.00;;;18.60;37.60;;;;;;5040948;28;22968;-63
2022/01/28 04:27:44;;;;;;;0.90;0.80;;;18.60;37.90;;;;;;5041894;28;20672;-63
2022/01/28 04:30:10;;;;;;;1.27;1.03;;;18.60;38.00;;;;;;5038994;28;20237;-64
2022/01/28 04:32:37;;;;;;;1.07;0.80;;;18.50;37.90;;;;;;5043041;28;20565;-63
2022/01/28 04:35:03;;;;;;;1.00;0.80;;;18.60;38.00;;;;;;5042789;28;20643;-64
2022/01/28 04:37:38;;;;;;;1.70;0.73;;;18.60;38.00;;;;;;5047023;28;20457;-65
2022/01/28 04:40:17;;;;;;;0.80;0.80;;;18.50;37.90;;;;;;5040666;28;20493;-63
2022/01/28 04:42:59;;;;;;;1.83;1.00;;;18.50;37.90;;;;;;5041774;28;20456;-63
2022/01/28 04:48:27;;;;;;;0.80;0.80;;;18.50;38.00;;;;;;5040147;28;20458;-64
2022/01/28 05:09:46;;;;;;;1.20;0.90;;;18.50;38.30;;;;;;5038680;28;20415;-65
2022/01/28 05:28:03;;;;;;;0.90;0.70;;;18.50;38.40;;;;;;5036157;28;20441;-64
2022/01/28 05:30:29;;;;;;;1.00;0.80;;;18.50;38.40;;;;;;5040877;28;20434;-66
2022/01/28 05:32:55;;;;;;;1.20;0.90;;;18.60;38.50;;;;;;5048208;28;20249;-64
2022/01/28 05:35:20;;;;;;;1.00;0.77;;;18.60;38.50;;;;;;5043468;28;20260;-64
2022/01/28 05:37:46;;;;;;;1.60;0.90;;;18.60;38.50;;;;;;5048203;28;20273;-64
2022/01/28 05:40:12;;;;;;;1.20;0.80;;;18.50;38.40;;;;;;5044884;28;20222;-64
2022/01/28 05:42:38;;;;;;;1.00;0.77;;;18.60;38.60;;;;;;5047803;28;20297;-67
2022/01/28 05:45:04;;;;;;;1.77;0.97;;;18.50;38.40;;;;;;5039582;28;20523;-66
2022/01/28 05:47:32;;;;;;;1.10;0.70;;;18.60;38.60;;;;;;5041172;28;20232;-70
2022/01/28 05:49:58;;;;;;;1.10;0.87;;;18.60;38.50;;;;;;5044922;28;20435;-67
2022/01/28 05:52:23;;;;;;;0.80;0.70;;;18.60;38.50;;;;;;5046321;28;20441;-68
2022/01/28 05:54:49;;;;;;;1.20;0.90;;;18.60;38.50;;;;;;5044932;28;20246;-67
2022/01/28 05:57:14;;;;;;;1.10;0.80;;;18.60;38.40;;;;;;5044191;28;20218;-66
2022/01/28 05:59:40;;;;;;;1.83;0.87;;;18.60;38.40;;;;;;5042266;28;20672;-68
2022/01/28 06:02:06;;;;;;;1.33;0.70;;;18.60;38.30;;;;;;5044849;28;20228;-68
2022/01/28 06:04:31;;;;;;;1.07;0.70;;;18.70;38.30;;;;;;5044140;28;20710;-66
2022/01/28 06:06:57;;;;;;;0.87;0.77;;;18.60;38.10;;;;;;5046349;28;20244;-65
2022/01/28 06:09:22;;;;;;;0.90;0.70;;;18.70;38.20;;;;;;5042940;28;20714;-65
2022/01/28 06:11:48;;;;;;;1.03;0.73;;;18.70;38.30;;;;;;5047026;28;20221;-66
2022/01/28 06:14:14;;;;;;;1.40;0.90;;;18.70;38.20;;;;;;5038867;28;20215;-65
2022/01/28 06:16:39;;;;;;;2.20;0.80;;;18.70;38.20;;;;;;5047772;28;20230;-66
2022/01/28 06:19:05;;;;;;;1.13;0.70;;;18.70;38.20;;;;;;5043967;28;20268;-66
2022/01/28 06:21:31;;;;;;;1.10;0.90;;;18.70;38.20;;;;;;5044138;28;20696;-66
2022/01/28 06:23:56;;;;;;;1.10;0.80;;;18.70;38.20;;;;;;5045024;28;20214;-66
2022/01/28 06:26:22;;;;;;;0.80;0.70;;;18.70;38.30;;;;;;5042025;28;20628;-64
2022/01/28 06:28:50;;;;;;;3.90;0.80;;;18.70;38.30;;;;;;5043151;28;20218;-65
2022/01/28 06:31:16;;;;;;;2.00;0.97;;;18.70;38.30;;;;;;5045266;28;20961;-66
2022/01/28 06:33:42;;;;;;;0.80;0.70;;;18.70;38.40;;;;;;5043414;28;20426;-66
2022/01/28 06:36:07;;;;;;;0.90;0.80;;;18.70;38.50;;;;;;5042981;28;20425;-66
2022/01/28 06:38:33;;;;;;;0.90;0.70;;;18.70;38.50;;;;;;5048004;28;20707;-65
2022/01/28 06:40:59;;;;;;;1.30;1.03;;;18.70;38.50;;;;;;5046970;28;20220;-67
2022/01/28 06:43:24;;;;;;;1.27;0.80;;;18.70;38.50;;;;;;5022972;28;20214;-67
2022/01/28 06:45:50;;;;;;;0.90;0.70;;;18.70;38.40;;;;;;5024650;28;20216;-66
2022/01/28 06:48:16;;;;;;;1.27;0.87;;;18.70;38.40;;;;;;5021276;28;20239;-67
2022/01/28 06:50:43;;;;;;;2.00;0.80;;;18.70;38.30;;;;;;5020492;28;20292;-66
2022/01/28 06:53:10;;;;;;;0.90;0.80;;;18.70;38.30;;;;;;5026500;28;20260;-66
2022/01/28 06:55:37;;;;;;;0.97;0.87;;;18.70;38.40;;;;;;5024272;28;20506;-65
2022/01/28 06:58:07;;;;;;;1.73;1.07;;;18.70;38.30;;;;;;5020374;28;20433;-65
2022/01/28 07:00:37;;;;;;;1.00;0.70;;;18.70;38.30;;;;;;5023072;28;20458;-65
2022/01/28 07:03:08;;;;;;;2.60;0.80;;;18.70;38.30;;;;;;5022970;28;20431;-65
2022/01/28 07:05:34;;;;;;;0.70;0.70;;;18.70;38.40;;;;;;5024880;28;20449;-65
2022/01/28 07:08:01;;;;;;;0.93;0.80;;;18.70;38.40;;;;;;5022968;28;20460;-65
2022/01/28 07:10:26;;;;;;;1.10;1.00;;;18.70;38.30;;;;;;5022676;28;20430;-64
2022/01/28 07:12:55;;;;;;;0.90;0.70;;;18.70;38.30;;;;;;5021960;28;20771;-65
2022/01/28 07:15:25;;;;;;;1.03;0.83;;;18.70;38.40;;;;;;5023059;28;20254;-65
2022/01/28 07:17:52;;;;;;;0.80;0.70;;;18.70;38.60;;;;;;5019870;28;20443;-64
2022/01/28 07:20:18;;;;;;;1.10;0.80;;;18.70;38.30;;;;;;5018211;28;20424;-65
2022/01/28 07:22:43;;;;;;;0.83;0.70;;;18.70;38.30;;;;;;5009526;28;20949;-67
2022/01/28 07:25:09;;;;;;;1.17;0.90;;;18.70;38.30;;;;;;5044803;28;20223;-66
2022/01/28 07:27:35;;;;;;;0.80;0.60;;;18.70;38.40;;;;;;5042019;28;20235;-65
2022/01/28 07:30:00;;;;;;;1.10;0.90;;;18.70;38.40;;;;;;5038942;28;20588;-65
2022/01/28 07:32:26;;;;;;;1.00;0.80;;;18.70;38.30;;;;;;5042565;28;20219;-64
2022/01/28 07:34:52;;;;;;;1.00;0.90;;;18.70;38.30;;;;;;5043887;28;20222;-64
2022/01/28 07:37:18;;;;;;;1.00;0.90;;;18.70;38.30;;;;;;5039955;28;20280;-64
2022/01/28 07:39:45;;;;;;;1.00;0.90;;;18.70;38.30;;;;;;5043945;28;20426;-64
2022/01/28 07:42:10;;;;;;;1.00;0.80;;;18.70;38.30;;;;;;5039975;28;20256;-64
2022/01/28 07:44:36;;;;;;;1.93;1.17;;;18.70;38.30;;;;;;5041496;28;20439;-64
2022/01/28 07:47:02;;;;;;;1.53;1.00;;;18.70;38.30;;;;;;5041102;28;20239;-64
2022/01/28 07:49:28;;;;;;;2.03;0.87;;;18.70;38.30;;;;;;5045852;28;20675;-65
2022/01/28 07:51:53;;;;;;;1.87;0.80;;;18.70;38.30;;;;;;5039898;28;20444;-65
2022/01/28 07:54:19;;;;;;;1.30;1.10;;;18.70;38.40;;;;;;5041950;28;20238;-65
2022/01/28 07:56:47;;;;;;;1.20;0.87;;;18.70;38.50;;;;;;5041180;28;20226;-65
2022/01/28 07:59:13;;;;;;;0.93;0.70;;;18.70;38.50;;;;;;5037086;28;20305;-67
2022/01/28 08:01:38;;;;;;;1.07;0.97;;;18.70;38.40;;;;;;5043585;28;20561;-66
2022/01/28 08:04:04;;;;;;;1.00;0.90;;;18.70;38.50;;;;;;5042345;28;20226;-66
2022/01/28 08:06:30;;;;;;;1.47;0.80;;;18.70;38.50;;;;;;5039153;28;20671;-66
2022/01/28 08:08:58;;;;;;;1.10;0.83;;;18.70;38.50;;;;;;5041134;28;20223;-65
2022/01/28 08:11:24;;;;;;;1.00;0.90;;;18.70;38.60;;;;;;5044838;28;21279;-65
2022/01/28 08:13:49;;;;;;;2.50;1.67;;;18.70;38.60;;;;;;5041975;28;20785;-65
2022/01/28 08:16:15;;;;;;;1.00;0.90;;;18.70;38.60;;;;;;5038599;28;20267;-64
2022/01/28 08:18:41;;;;;;;1.00;0.80;;;18.70;38.60;;;;;;5036774;28;20230;-64
2022/01/28 08:21:06;;;;;;;2.00;0.90;;;18.70;38.60;;;;;;5041387;28;20345;-64
2022/01/28 08:23:32;;;;;;;1.00;0.90;;;18.60;38.50;;;;;;5038284;28;20218;-64
2022/01/28 08:25:58;;;;;;;1.37;0.90;;;18.70;38.60;;;;;;5037224;28;20211;-64
2022/01/28 08:28:23;;;;;;;1.13;0.90;;;18.70;38.60;;;;;;5040853;28;20733;-64
2022/01/28 08:30:49;;;;;;;1.57;1.00;;;18.70;38.50;;;;;;5042151;28;20751;-64
2022/01/28 08:33:15;;;;;;;4.87;1.00;;;18.70;38.60;;;;;;5039676;28;20272;-64
2022/01/28 08:35:41;;;;;;;0.90;0.80;;;18.70;38.60;;;;;;5036457;28;20218;-65
2022/01/28 08:38:16;;;;;;;0.90;0.80;;;18.70;38.60;;;;;;5039489;28;20223;-64
2022/01/28 08:40:42;;;;;;;1.13;0.90;;;18.70;38.70;;;;;;5042909;28;20461;-65
2022/01/28 08:43:08;;;;;;;4.80;0.90;;;18.70;38.60;;;;;;5037134;28;20444;-66
2022/01/28 08:45:34;;;;;;;2.20;1.00;;;18.70;38.60;;;;;;5040992;28;20280;-65
2022/01/28 08:47:59;;;;;;;1.40;1.00;;;18.70;38.60;;;;;;5040318;28;20313;-66
2022/01/28 08:50:25;;;;;;;1.00;0.77;;;18.70;38.60;;;;;;5046800;28;20653;-65
2022/01/28 08:52:50;;;;;;;1.30;1.00;;;18.70;38.50;;;;;;5040105;28;20215;-65
2022/01/28 08:55:16;;;;;;;1.00;0.80;;;18.70;38.40;;;;;;5068003;28;20294;-65
2022/01/28 08:57:43;;;;;;;2.00;1.00;;;18.70;38.40;;;;;;5037873;28;20226;-65
2022/01/28 09:00:16;;;;;;;0.93;0.80;;;18.70;38.40;;;;;;5041499;28;20266;-65
2022/01/28 09:02:42;;;;;;;1.40;0.90;;;18.70;38.30;;;;;;5041120;28;20455;-64
2022/01/28 09:05:08;;;;;;;0.83;0.70;;;18.70;38.30;;;;;;5036587;28;20527;-64
2022/01/28 09:07:34;;;;;;;0.90;0.80;;;18.70;38.30;;;;;;5042788;28;20226;-64
2022/01/28 09:10:06;;;;;;;1.40;0.77;;;18.70;38.20;;;;;;5038236;28;20437;-67
2022/01/28 09:13:10;;;;;;;1.00;0.90;;;18.80;38.30;;;;;;5042337;28;20345;-64
2022/01/28 09:15:20;;;;;;;1.50;0.90;;;18.70;38.20;;;;;;5037041;28;20944;-64
2022/01/28 09:17:45;;;;;;;1.27;0.80;;;18.70;38.30;;;;;;5039950;28;20452;-64
2022/01/28 09:20:11;;;;;;;1.10;1.00;;;18.70;38.40;;;;;;5042441;28;20223;-65
2022/01/28 09:22:37;;;;;;;1.10;0.80;;;18.70;38.30;;;;;;5040252;28;21653;-64
2022/01/28 09:25:02;;;;;;;1.43;0.97;;;18.70;38.30;;;;;;5037784;28;20218;-65
2022/01/28 09:27:28;;;;;;;1.13;0.87;;;18.70;38.30;;;;;;5040213;28;20234;-65
2022/01/28 09:29:54;;;;;;;0.90;0.87;;;18.70;38.30;;;;;;5038736;28;20321;-65
2022/01/28 09:32:19;;;;;;;2.87;1.13;;;18.70;38.40;;;;;;5043174;28;20227;-64
2022/01/28 09:34:45;;;;;;;0.80;0.80;;;18.70;38.60;;;;;;5041939;28;20588;-64
2022/01/28 09:37:13;;;;;;;1.33;0.90;;;18.70;38.40;;;;;;5036875;28;20246;-64
2022/01/28 09:39:43;;;;;;;1.23;0.90;;;18.70;38.50;;;;;;5041839;28;20219;-64
2022/01/28 09:42:15;;;;;;;1.10;1.00;;;18.70;38.50;;;;;;5041121;28;21105;-64
2022/01/28 09:44:42;;;;;;;1.03;0.93;;;18.70;38.50;;;;;;5042116;28;20438;-64
2022/01/28 09:47:10;;;;;;;1.83;0.93;;;18.70;38.50;;;;;;5038458;28;20463;-65
2022/01/28 09:49:37;;;;;;;1.77;0.80;;;18.70;38.50;;;;;;5044178;28;20436;-64
2022/01/28 09:52:04;;;;;;;1.03;0.80;;;18.70;38.50;;;;;;5044160;28;20455;-64
2022/01/28 09:54:30;;;;;;;1.00;0.90;;;18.70;38.60;;;;;;5038840;28;20436;-65
2022/01/28 09:56:55;;;;;;;1.00;0.90;;;18.70;38.50;;;;;;5042078;28;20447;-65
2022/01/28 09:59:21;;;;;;;1.43;1.00;;;18.60;38.40;;;;;;5041424;28;20227;-64
2022/01/28 10:01:51;;;;;;;1.10;0.70;;;18.70;38.50;;;;;;5038300;28;20682;-64
2022/01/28 10:04:18;;;;;;;1.57;0.70;;;18.60;38.40;;;;;;5045703;28;20222;-64
2022/01/28 10:06:45;;;;;;;0.87;0.80;;;18.60;38.40;;;;;;5041747;28;20839;-64
2022/01/28 10:09:14;;;;;;;1.00;0.90;;;18.60;38.40;;;;;;5039072;28;20445;-64
2022/01/28 10:11:43;;;;;;;1.60;1.07;;;18.70;38.50;;;;;;5047142;28;20460;-64
2022/01/28 10:14:21;;;;;;;0.87;0.70;;;18.60;38.50;;;;;;5042831;28;20438;-64
2022/01/28 10:16:58;;;;;;;1.40;0.87;;;18.60;38.50;;;;;;5042153;28;20544;-65
2022/01/28 10:19:37;;;;;;;1.23;0.90;;;18.60;38.50;;;;;;5038619;28;20477;-66
2022/01/28 10:22:03;;;;;;;1.13;0.90;;;18.60;38.50;;;;;;5045419;28;20465;-65
2022/01/28 10:24:29;;;;;;;0.70;0.70;;;18.60;38.50;;;;;;5045859;28;20455;-65
2022/01/28 10:27:09;;;;;;;0.73;0.70;;;18.60;38.60;;;;;;5047041;28;20447;-64
2022/01/28 10:29:43;;;;;;;1.10;0.90;;;18.60;38.50;;;;;;5040403;28;20238;-64
2022/01/28 10:32:14;;;;;;;3.30;0.93;;;18.60;38.50;;;;;;5043372;28;20603;-64
2022/01/28 10:34:47;;;;;;;1.13;0.93;;;18.60;38.50;;;;;;5040029;28;20517;-64
2022/01/28 10:37:17;;;;;;;1.17;0.70;;;18.60;38.50;;;;;;5044805;28;20460;-64
2022/01/28 10:39:57;;;;;;;0.97;0.83;;;18.60;38.50;;;;;;5044851;28;20559;-64
2022/01/28 10:42:25;;;;;;;1.10;0.77;;;18.60;38.50;;;;;;5050081;28;20459;-64
2022/01/28 10:44:57;;;;;;;0.80;0.80;;;18.60;38.60;;;;;;5045406;28;20497;-64
2022/01/28 10:47:45;;;;;;;0.97;0.90;;;18.60;38.60;;;;;;5046098;28;20546;-64
2022/01/28 10:50:30;;;;;;;0.90;0.80;;;18.60;38.60;;;;;;5048781;28;20810;-64
2022/01/28 10:53:06;;;;;;;1.10;0.80;;;18.60;38.60;;;;;;5042630;28;20457;-64
2022/01/28 10:55:38;;;;;;;1.57;1.07;;;18.60;38.70;;;;;;5043512;28;20453;-64
2022/01/28 10:58:09;;;;;;;2.03;1.27;;;18.60;38.70;;;;;;5042587;28;20816;-63
2022/01/28 11:00:40;;;;;;;0.80;0.70;;;18.60;38.70;;;;;;5041780;28;20482;-63
2022/01/28 11:03:07;;;;;;;1.83;0.93;;;18.60;38.70;;;;;;5042472;28;20534;-63
2022/01/28 11:05:35;;;;;;;1.80;1.00;;;18.60;38.70;;;;;;5044352;28;20450;-63
2022/01/28 11:08:02;;;;;;;1.00;0.83;;;18.60;38.70;;;;;;5042837;28;20964;-63
2022/01/28 11:10:28;;;;;;;1.70;0.83;;;18.60;38.70;;;;;;5039324;28;20456;-66
2022/01/28 11:12:56;;;;;;;0.90;0.80;;;18.60;38.70;;;;;;5045583;28;21005;-67
2022/01/28 11:15:22;;;;;;;1.40;0.87;;;18.60;38.70;;;;;;5042798;28;20457;-65
2022/01/28 11:17:49;;;;;;;1.03;0.73;;;18.60;38.70;;;;;;5040518;28;20827;-65
2022/01/28 11:20:20;;;;;;;0.93;0.83;;;18.60;38.70;;;;;;5039636;28;20536;-65
2022/01/28 11:23:10;;;;;;;1.20;1.10;;;18.60;38.70;;;;;;5044654;28;20473;-64
2022/01/28 11:25:50;;;;;;;1.30;0.80;;;18.60;38.70;;;;;;5042048;28;20545;-65
2022/01/28 11:28:16;;;;;;;1.00;0.80;;;18.60;38.70;;;;;;5036899;28;20463;-64
2022/01/28 11:30:51;;;;;;;1.00;0.90;;;18.60;38.70;;;;;;5040888;28;20970;-65
2022/01/28 11:33:18;;;;;;;1.13;0.97;;;18.60;38.70;;;;;;5045077;28;20211;-64
2022/01/28 11:35:49;;;;;;;1.10;1.00;;;18.60;38.70;;;;;;5042881;28;20523;-67
2022/01/28 11:38:27;;;;;;;0.90;0.80;;;18.60;38.70;;;;;;5039654;28;20484;-65
2022/01/28 11:40:55;;;;;;;1.10;0.83;;;18.60;38.70;;;;;;5043836;28;20500;-65
2022/01/28 11:43:32;;;;;;;1.00;0.90;;;18.60;38.70;;;;;;5045815;28;20437;-65
2022/01/28 11:46:08;;;;;;;1.00;0.90;;;18.60;39.50;;;;;;5042268;28;20439;-64
2022/01/28 11:48:51;;;;;;;1.07;0.97;;;18.60;38.80;;;;;;5024070;28;20532;-65
2022/01/28 11:51:35;;;;;;;0.90;0.70;;;18.60;38.70;;;;;;5018402;28;20945;-65
2022/01/28 11:54:04;;;;;;;0.90;0.73;;;18.60;38.70;;;;;;5063262;28;20510;-64
2022/01/28 11:56:31;;;;;;;1.13;1.00;;;18.60;38.80;;;;;;5042463;28;20843;-65
2022/01/28 11:59:03;;;;;;;0.87;0.80;;;18.60;38.80;;;;;;5046859;28;20495;-65
2022/01/28 12:01:40;;;;;;;1.33;0.80;;;18.60;38.70;;;;;;5043692;28;20942;-65
2022/01/28 12:04:39;;;;;;;1.10;0.80;;;18.60;38.80;;;;;;5039384;28;20458;-65
2022/01/28 12:07:15;;;;;;;1.40;0.90;;;18.60;38.80;;;;;;5014906;28;20492;-64
2022/01/28 12:09:44;;;;;;;1.20;1.00;;;18.60;38.80;;;;;;5031167;28;20464;-65
2022/01/28 12:12:11;;;;;;;2.07;0.77;;;18.60;38.80;;;;;;5020488;28;20464;-65
2022/01/28 12:14:52;;;;;;;0.93;0.70;;;18.60;38.80;;;;;;5021509;28;20453;-65
2022/01/28 12:17:51;;;;;;;1.10;0.90;;;18.50;38.70;;;;;;5028521;28;20439;-64
2022/01/28 12:20:19;;;;;;;0.93;0.80;;;18.60;38.80;;;;;;5014144;28;20455;-65
2022/01/28 12:23:01;;;;;;;1.20;0.73;;;18.50;38.80;;;;;;5017566;28;20457;-64
2022/01/28 12:25:35;;;;;;;1.57;0.90;;;18.50;38.90;;;;;;5046448;28;20422;-64
2022/01/28 12:28:14;;;;;;;1.00;0.80;;;18.50;38.80;;;;;;5044910;28;20951;-64
2022/01/28 12:30:46;;;;;;;1.00;0.80;;;18.50;38.80;;;;;;5041284;28;20471;-65
2022/01/28 12:33:13;;;;;;;1.17;0.87;;;18.50;38.90;;;;;;5033909;28;20896;-64
2022/01/28 12:35:41;;;;;;;1.30;0.80;;;18.50;38.90;;;;;;5044134;28;20440;-65
2022/01/28 12:38:07;;;;;;;0.90;0.80;;;18.50;38.90;;;;;;5042646;28;20459;-65
2022/01/28 12:40:36;;;;;;;1.63;0.90;;;18.50;38.80;;;;;;5045562;28;20422;-65
2022/01/28 12:43:06;;;;;;;0.97;0.80;;;18.50;38.90;;;;;;5041512;28;20447;-64
2022/01/28 12:45:32;;;;;;;1.77;0.60;;;18.50;39.00;;;;;;5039706;28;20900;-65
2022/01/28 12:47:58;;;;;;;1.47;0.80;;;18.50;39.00;;;;;;5041747;28;20437;-65
2022/01/28 12:50:24;;;;;;;1.07;0.80;;;18.50;39.00;;;;;;5046218;28;20925;-64
2022/01/28 12:52:51;;;;;;;1.43;1.10;;;18.50;39.00;;;;;;5039474;28;20980;-64
2022/01/28 12:55:17;;;;;;;0.70;0.70;;;18.50;39.00;;;;;;5038384;28;20453;-65
2022/01/28 12:57:45;;;;;;;1.30;0.80;;;18.50;39.00;;;;;;5041869;28;20230;-65
2022/01/28 13:00:12;;;;;;;1.23;1.13;;;18.50;39.00;;;;;;5041400;28;20221;-64
2022/01/28 13:02:40;;;;;;;1.57;0.87;;;18.50;39.00;;;;;;5043904;28;20456;-64
2022/01/28 13:10:24;;;;;;;0.80;0.70;;;18.50;39.00;;;;;;5036720;28;20436;-64
2022/01/28 13:12:51;;;;;;;1.40;1.00;;;18.50;39.00;;;;;;5043550;28;20423;-64
2022/01/28 13:15:17;;;;;;;0.90;0.80;;;18.50;39.00;;;;;;5044176;28;20775;-65
2022/01/28 13:17:55;;;;;;;0.90;0.80;;;18.50;39.80;;;;;;5048845;28;20835;-66
2022/01/28 13:20:21;;;;;;;1.27;1.10;;;18.50;39.00;;;;;;5046584;28;20435;-66
2022/01/28 13:22:52;;;;;;;1.17;0.90;;;18.50;39.10;;;;;;5040951;28;20453;-66
2022/01/28 13:25:23;;;;;;;1.30;1.20;;;18.50;39.00;;;;;;5041816;28;20451;-66
2022/01/28 13:27:57;;;;;;;0.90;0.80;;;18.50;39.00;;;;;;5041577;28;20443;-65
2022/01/28 13:30:23;;;;;;;1.00;0.90;;;18.50;39.00;;;;;;5040009;28;20545;-65
2022/01/28 13:32:50;;;;;;;1.00;0.90;;;18.50;39.00;;;;;;5037949;28;20499;-65
2022/01/28 13:35:22;;;;;;;0.83;0.70;;;18.50;39.00;;;;;;5043551;28;20234;-64
2022/01/28 13:37:59;;;;;;;1.23;1.13;;;18.50;39.00;;;;;;5039162;28;20452;-66
2022/01/28 13:40:28;;;;;;;1.77;0.73;;;18.50;39.00;;;;;;5045632;28;20947;-65
2022/01/28 13:43:15;;;;;;;0.93;0.70;;;18.50;39.00;;;;;;5047535;28;20528;-65
2022/01/28 13:45:48;;;;;;;1.00;0.80;;;18.50;39.00;;;;;;5036529;28;20515;-65
2022/01/28 13:48:34;;;;;;;1.50;0.90;;;18.50;39.00;;;;;;5032901;28;20440;-65
2022/01/28 13:51:12;;;;;;;0.70;0.70;;;18.50;39.00;;;;;;5040927;28;20514;-65
2022/01/28 13:56:35;;;;;;;1.27;1.00;;;18.50;39.00;;;;;;5026058;28;20457;-68
2022/01/28 13:59:01;;;;;;;1.20;0.90;;;18.50;39.00;;;;;;5022405;28;20468;-64
2022/01/28 14:01:28;;;;;;;0.80;0.80;;;18.50;39.10;;;;;;5021115;28;20446;-65
2022/01/28 14:03:58;;;;;;;1.47;0.80;;;18.50;39.00;;;;;;5021073;28;20444;-65
2022/01/28 14:06:27;;;;;;;0.97;0.80;;;18.50;39.00;;;;;;5021771;28;20474;-65
2022/01/28 14:09:09;;;;;;;0.77;0.70;;;18.50;39.00;;;;;;5022814;28;20482;-65
2022/01/28 14:11:47;;;;;;;1.00;0.90;;;18.50;39.10;;;;;;5035520;28;20502;-64
2022/01/28 14:14:44;;;;;;;1.00;0.90;;;18.50;39.10;;;;;;5043323;28;20568;-64
2022/01/28 14:17:10;;;;;;;1.70;0.90;;;18.50;39.10;;;;;;5042643;28;20456;-65
2022/01/28 14:19:41;;;;;;;2.13;0.90;;;18.50;39.10;;;;;;5040593;28;20458;-64
2022/01/28 14:22:08;;;;;;;1.30;1.00;;;18.50;39.10;;;;;;5040646;28;20444;-64
2022/01/28 14:24:39;;;;;;;1.10;0.93;;;18.50;39.20;;;;;;5041867;28;20515;-65
2022/01/28 14:32:15;;;;;;;15.20;2.83;;;18.50;39.10;;;;;;5046427;28;20995;-66
2022/01/28 14:34:42;;;;;;;10.47;3.43;;;18.50;39.10;;;;;;5040803;28;20799;-66